Time;durP1;ratioP1;P1;durP2;ratioP2;P2;SDS_P1;SDS_P2;PMS_P1;PMS_P2;Temp;Humidity;BMP_temperature;BMP_pressure;BME280_temperature;BME280_humidity;BME280_pressure;Samples;Min_cycle;Max_cycle;Signal;HPM_P1;HPM_P2
2019/06/14 06:49:45;;;;;;;8.5;1.8;;;;;;;25.91;35.05664;938.6092;;;;
2019/06/14 06:52:10;;;;;;;8.3;1.6;;;;;;;26.03;35.55176;938.6296;;;;
2019/06/14 06:54:37;;;;;;;3.2;1.5;;;;;;;25.24;35.75879;938.6559;;;;
2019/06/14 06:57:04;;;;;;;5.4;1.7;;;;;;;23.58;38.25;938.6539;;;;
2019/06/14 06:59:42;;;;;;;7.6;1.9;;;;;;;22.91;39.48438;938.5514;;;;
2019/06/14 07:02:15;;;;;;;5.2;1.7;;;;;;;22.85;40.16113;938.5552;;;;
2019/06/14 07:04:48;;;;;;;4.7;1.8;;;;;;;24.46;38.06641;938.4901;;;;
2019/06/14 07:07:21;;;;;;;4.9;1.5;;;;;;;25.19;34.81152;938.3458;;;;
2019/06/14 07:09:42;;;;;;;5.1;1.9;;;;;;;26.58;33.21387;938.4664;;;;
2019/06/14 07:12:07;;;;;;;4.4;1.7;;;;;;;28.03;31.0293;938.4067;;;;
2019/06/14 07:14:36;;;;;;;7.5;1.8;;;;;;;29.06;29.99316;938.4026;;;;
2019/06/14 07:17:04;;;;;;;6.1;1.6;;;;;;;29.83;27.4082;938.5081;;;;
2019/06/14 07:19:37;;;;;;;2.4;1.3;;;;;;;29.67;27.10059;938.3572;;;;
2019/06/14 07:22:07;;;;;;;4.7;1.4;;;;;;;29.69;27.82813;938.2704;;;;
2019/06/14 07:24:41;;;;;;;4.9;1.6;;;;;;;28.62;28.85742;938.248;;;;
2019/06/14 07:27:14;;;;;;;4.8;1.8;;;;;;;27.04;32.14648;938.4191;;;;
2019/06/14 07:29:38;;;;;;;7.1;1.6;;;;;;;27.93;30.55957;938.301;;;;
2019/06/14 07:32:06;;;;;;;5.5;1.9;;;;;;;28.26;31.28223;938.3052;;;;
2019/06/14 07:34:44;;;;;;;4.6;1.7;;;;;;;28.57;30.7334;938.2753;;;;
2019/06/14 07:37:18;;;;;;;2.4;1.4;;;;;;;28.38;30.33984;938.2363;;;;
2019/06/14 07:39:50;;;;;;;4.2;2.3;;;;;;;28.93;30.4834;938.1711;;;;
2019/06/14 07:42:30;;;;;;;4;1.5;;;;;;;29.11;28.75684;938.2335;;;;
2019/06/14 07:45:23;;;;;;;4.4;1.9;;;;;;;30.07;28.18652;938.2394;;;;
2019/06/14 07:47:48;;;;;;;5.4;1.5;;;;;;;31.11;26.97168;938.1856;;;;
2019/06/14 07:50:22;;;;;;;5;1.5;;;;;;;32.14;28.90234;938.1161;;;;
2019/06/14 07:52:53;;;;;;;4;1.5;;;;;;;33.69;23.88867;938.3102;;;;
2019/06/14 07:55:28;;;;;;;4.1;1.5;;;;;;;33.22;23.96094;938.2512;;;;
2019/06/14 07:57:56;;;;;;;5.5;1.5;;;;;;;33.38;23.2959;938.1253;;;;
2019/06/14 08:00:24;;;;;;;4.9;1.6;;;;;;;32.22;24.62793;938.1481;;;;
2019/06/14 08:02:52;;;;;;;2.8;1.4;;;;;;;31.59;28.16113;938.1094;;;;
2019/06/14 08:05:18;;;;;;;2.7;1.3;;;;;;;32.5;26.8623;938.0931;;;;
2019/06/14 08:07:52;;;;;;;3.8;1.5;;;;;;;33.54;23.90527;938.1522;;;;
2019/06/14 08:10:19;;;;;;;6.3;1.6;;;;;;;31.54;25.99121;938.0742;;;;
2019/06/14 08:12:51;;;;;;;4.8;1.5;;;;;;;31.99;26.16113;938.0803;;;;
2019/06/14 08:15:29;;;;;;;3.7;1.3;;;;;;;33.13;25.54199;938.0082;;;;
2019/06/14 08:18:01;;;;;;;2.8;1.2;;;;;;;33.76;21.06641;937.9348;;;;
2019/06/14 08:20:29;;;;;;;5.6;1.8;;;;;;;32.43;23.82324;937.9789;;;;
2019/06/14 08:22:59;;;;;;;7.2;1.9;;;;;;;32.97;26.20508;937.9626;;;;
2019/06/14 08:25:39;;;;;;;10;1.7;;;;;;;33.95;21.68848;937.8369;;;;
2019/06/14 08:28:11;;;;;;;10.2;1.9;;;;;;;34.01;20.04199;937.9045;;;;
2019/06/14 08:30:37;;;;;;;5.3;1.4;;;;;;;33.79;20.33301;937.929;;;;
2019/06/14 08:33:05;;;;;;;5.3;1.6;;;;;;;34.24;22.14746;937.795;;;;
2019/06/14 08:35:31;;;;;;;6.7;1.5;;;;;;;33.94;20.3877;937.7114;;;;
2019/06/14 08:38:04;;;;;;;7.8;1.7;;;;;;;34.81;19.31738;937.7659;;;;
2019/06/14 08:40:28;;;;;;;7.7;1.7;;;;;;;35.21;18.79102;937.824;;;;
2019/06/14 08:42:57;;;;;;;11.5;1.8;;;;;;;34.97;17.86426;937.8123;;;;
2019/06/14 08:45:23;;;;;;;6.6;1.7;;;;;;;34.39;21.38379;937.8733;;;;
2019/06/14 08:47:48;;;;;;;8.9;1.7;;;;;;;34.74;19.35059;937.8853;;;;
2019/06/14 08:50:27;;;;;;;10;2;;;;;;;34.3;20.10254;937.8494;;;;
2019/06/14 08:52:58;;;;;;;5.9;1.3;;;;;;;34.01;18.59766;937.8516;;;;
2019/06/14 08:55:29;;;;;;;4.8;1.4;;;;;;;34.15;23.25098;937.8256;;;;
2019/06/14 08:57:58;;;;;;;7.8;1.6;;;;;;;34.34;18.86426;937.8778;;;;
2019/06/14 09:00:31;;;;;;;6.3;1.6;;;;;;;33.02;21.16406;937.7559;;;;
2019/06/14 09:03:13;;;;;;;9;1.7;;;;;;;32.33;18.27637;937.7519;;;;
2019/06/14 09:05:44;;;;;;;3.9;1.6;;;;;;;32.02;22.2793;937.7505;;;;
2019/06/14 09:08:06;;;;;;;5.5;1.6;;;;;;;32.3;20.61426;937.7126;;;;
2019/06/14 09:10:41;;;;;;;6.5;1.7;;;;;;;32.27;19.91699;937.7236;;;;
2019/06/14 09:13:06;;;;;;;7.5;1.7;;;;;;;30.93;19.90625;937.7706;;;;
2019/06/14 09:15:38;;;;;;;3.9;1.5;;;;;;;30.27;21.82324;937.7239;;;;
2019/06/14 09:18:09;;;;;;;5.4;1.6;;;;;;;30.78;21.20313;937.6646;;;;
2019/06/14 09:20:40;;;;;;;7.1;1.6;;;;;;;31.12;20.5127;937.7051;;;;
2019/06/14 09:23:15;;;;;;;11.2;1.9;;;;;;;30.7;19.29883;937.7439;;;;
2019/06/14 09:25:50;;;;;;;8.9;1.8;;;;;;;31.12;19.97461;937.7012;;;;
2019/06/14 09:28:18;;;;;;;7.1;2;;;;;;;31.47;19.45117;937.673;;;;
2019/06/14 09:30:50;;;;;;;8.6;2.1;;;;;;;31.55;18.87988;937.625;;;;
2019/06/14 09:33:22;;;;;;;7.6;2.1;;;;;;;31.02;19.94629;937.683;;;;
2019/06/14 09:35:48;;;;;;;6.2;1.8;;;;;;;31.2;20.19336;937.6429;;;;
2019/06/14 09:38:13;;;;;;;6.8;2;;;;;;;31.44;19.1748;937.5823;;;;
2019/06/14 09:40:40;;;;;;;6.4;2;;;;;;;31.39;20.99121;937.5614;;;;
2019/06/14 09:43:09;;;;;;;9.2;1.8;;;;;;;31.97;20.93457;937.5743;;;;
2019/06/14 09:45:40;;;;;;;9.9;1.8;;;;;;;32.79;24.05762;937.5263;;;;
2019/06/14 09:48:06;;;;;;;9.2;1.9;;;;;;;33.46;19.87305;937.5284;;;;
2019/06/14 09:50:35;;;;;;;10.3;1.8;;;;;;;33.9;18.01563;937.5033;;;;
2019/06/14 09:53:05;;;;;;;6.6;2;;;;;;;33.99;20.39063;937.4819;;;;
2019/06/14 09:55:36;;;;;;;6.4;2;;;;;;;34.19;18.77344;937.4347;;;;
2019/06/14 09:58:23;;;;;;;9.5;2;;;;;;;34.2;19.30371;937.4067;;;;
2019/06/14 10:00:48;;;;;;;9.1;2;;;;;;;34.66;23.81934;937.4118;;;;
2019/06/14 10:03:21;;;;;;;10.5;2.2;;;;;;;34.59;19.875;937.3588;;;;
2019/06/14 10:05:45;;;;;;;7.6;2;;;;;;;34.53;20.38965;937.3215;;;;
2019/06/14 10:08:18;;;;;;;10.5;2;;;;;;;34.37;20.70801;937.2862;;;;
2019/06/14 10:10:47;;;;;;;8.2;1.9;;;;;;;34.36;22.04492;937.3856;;;;
2019/06/14 10:13:18;;;;;;;8.3;2;;;;;;;34.21;18.90625;937.3298;;;;
2019/06/14 10:15:52;;;;;;;9.6;2;;;;;;;33.98;19.71582;937.3472;;;;
2019/06/14 10:18:23;;;;;;;9.4;1.9;;;;;;;33.3;18.78516;937.3126;;;;
2019/06/14 10:20:55;;;;;;;9.9;2.1;;;;;;;33.16;19.51172;937.2629;;;;
2019/06/14 10:23:24;;;;;;;7.1;2.4;;;;;;;32.78;22.95313;937.2453;;;;
2019/06/14 10:25:59;;;;;;;9;2.4;;;;;;;33.19;21.19531;937.2533;;;;
2019/06/14 10:28:38;;;;;;;8.5;2.2;;;;;;;32.93;19.75391;937.228;;;;
2019/06/14 10:31:02;;;;;;;6.5;2;;;;;;;32.86;19.64355;937.1392;;;;
2019/06/14 10:33:27;;;;;;;7.1;1.9;;;;;;;32.76;20.55176;937.0424;;;;
2019/06/14 10:36:03;;;;;;;9.3;2.8;;;;;;;32.92;17.1123;937.0314;;;;
2019/06/14 10:38:33;;;;;;;10.6;3.7;;;;;;;33.09;18.31934;937.0607;;;;
2019/06/14 10:41:04;;;;;;;11.7;2.4;;;;;;;33.27;17.2334;937.0977;;;;
2019/06/14 10:43:37;;;;;;;10.8;2.4;;;;;;;33.88;22.44238;937.0806;;;;
2019/06/14 10:46:08;;;;;;;8.5;2.3;;;;;;;33.63;17.64355;936.9719;;;;
2019/06/14 10:48:39;;;;;;;14.6;2.3;;;;;;;33.5;17.24219;936.9492;;;;
2019/06/14 10:51:14;;;;;;;12.2;2.2;;;;;;;33.96;19.40137;937.0342;;;;
2019/06/14 10:53:45;;;;;;;9.4;2.1;;;;;;;34.51;18.50977;937.003;;;;
2019/06/14 10:56:25;;;;;;;9.6;2;;;;;;;34.87;18.27051;936.9641;;;;
2019/06/14 10:59:01;;;;;;;11;2.1;;;;;;;34.95;19.28711;936.9305;;;;
2019/06/14 11:01:31;;;;;;;10.7;2.4;;;;;;;35.07;17.72363;936.9253;;;;
2019/06/14 11:03:55;;;;;;;8.8;2.1;;;;;;;34.99;17.92578;936.9494;;;;
2019/06/14 11:06:41;;;;;;;13.2;2.4;;;;;;;34.97;19.77051;936.9182;;;;
2019/06/14 11:09:08;;;;;;;11.4;2.3;;;;;;;34.88;18.12598;936.8301;;;;
2019/06/14 11:17:11;;;;;;;12.7;2.8;;;;;;;35.28;17.99707;936.7789;;;;
2019/06/14 11:19:39;;;;;;;6.7;2.4;;;;;;;35.63;19.29199;936.7478;;;;
2019/06/14 11:22:06;;;;;;;10.3;2.2;;;;;;;35.97;18.50781;936.7344;;;;
2019/06/14 11:24:36;;;;;;;7.2;2.4;;;;;;;36.01;17.27637;936.7533;;;;
2019/06/14 11:27:13;;;;;;;8.5;2.3;;;;;;;35.5;15.37305;936.7566;;;;
2019/06/14 11:29:43;;;;;;;11.8;2.3;;;;;;;35.43;15.97461;936.7489;;;;
2019/06/14 11:32:07;;;;;;;10.3;2.6;;;;;;;35.3;15.36621;936.6591;;;;
2019/06/14 11:34:41;;;;;;;12;2.5;;;;;;;35.33;15.89844;936.653;;;;
2019/06/14 11:37:08;;;;;;;10.6;2.5;;;;;;;35.56;16.48633;936.6781;;;;
2019/06/14 11:39:34;;;;;;;14.5;2.7;;;;;;;35.01;15.17578;936.6418;;;;
2019/06/14 11:42:11;;;;;;;7.9;2.4;;;;;;;35.16;18.6084;936.6158;;;;
2019/06/14 11:44:44;;;;;;;10.6;2.3;;;;;;;35.5;15.6748;936.5709;;;;
2019/06/14 11:47:20;;;;;;;11.8;2.5;;;;;;;34.92;15.05273;936.5525;;;;
2019/06/14 11:49:53;;;;;;;12;2.4;;;;;;;34.6;15.96973;936.5787;;;;
2019/06/14 11:52:26;;;;;;;12.7;2.5;;;;;;;35.32;17.55273;936.6015;;;;
2019/06/14 11:54:49;;;;;;;13.6;2.8;;;;;;;35.46;15.50488;936.5389;;;;
2019/06/14 11:57:21;;;;;;;10.8;2.3;;;;;;;35.77;17.59375;936.5389;;;;
2019/06/14 11:59:52;;;;;;;12.6;2.3;;;;;;;36;15.94629;936.573;;;;
2019/06/14 12:02:29;;;;;;;13.5;2.7;;;;;;;35.85;16.00195;936.4938;;;;
2019/06/14 12:05:07;;;;;;;11.3;2.6;;;;;;;35.58;15.67773;936.4364;;;;
2019/06/14 12:07:30;;;;;;;12.9;2.6;;;;;;;36.18;18.68555;936.4675;;;;
2019/06/14 12:09:56;;;;;;;71.6;4.8;;;;;;;36.59;17.10449;936.4056;;;;
2019/06/14 12:12:39;;;;;;;13.1;2.5;;;;;;;36.45;16.49414;936.3821;;;;
2019/06/14 12:15:04;;;;;;;19.6;2.9;;;;;;;36.39;19.73535;936.4153;;;;
2019/06/14 12:17:41;;;;;;;26;2.8;;;;;;;36.48;17.57227;936.3719;;;;
2019/06/14 12:20:16;;;;;;;12.4;2.3;;;;;;;36.67;15.69141;936.3145;;;;
2019/06/14 12:22:51;;;;;;;11.8;2.5;;;;;;;36.5;14.28125;936.3103;;;;
2019/06/14 12:25:13;;;;;;;19.1;2.8;;;;;;;36.37;16.11621;936.242;;;;
2019/06/14 12:27:42;;;;;;;16.7;2.9;;;;;;;36.42;15.07715;936.2819;;;;
2019/06/14 12:34:04;;;;;;;13.5;2.7;;;;;;;36.56;15.54199;936.2447;;;;
2019/06/14 12:36:31;;;;;;;15.4;2.5;;;;;;;36.63;14.76953;936.3142;;;;
2019/06/14 12:38:57;;;;;;;12.4;2.7;;;;;;;36.19;14.39258;936.1514;;;;
2019/06/14 12:41:33;;;;;;;11.6;2.5;;;;;;;36.09;17.56934;936.1318;;;;
2019/06/14 12:43:54;;;;;;;14.5;2.5;;;;;;;35.94;15.20703;936.1515;;;;
2019/06/14 12:46:26;;;;;;;9.2;2.4;;;;;;;35.94;15.41211;936.1211;;;;
2019/06/14 12:49:08;;;;;;;12.5;2.3;;;;;;;36.34;18.93457;936.1077;;;;
2019/06/14 12:51:34;;;;;;;11.2;2.4;;;;;;;36.42;21.87891;936.1304;;;;
2019/06/14 12:54:01;;;;;;;14.3;2.3;;;;;;;36.07;25.89941;936.1403;;;;
2019/06/14 12:56:26;;;;;;;16.5;2.2;;;;;;;35.39;26.30859;936.0463;;;;
2019/06/14 12:59:00;;;;;;;17.2;2.4;;;;;;;35.04;25.33496;935.9724;;;;
2019/06/14 13:01:26;;;;;;;11.3;2.2;;;;;;;34.59;26.08203;936.0695;;;;
2019/06/14 13:03:58;;;;;;;11.2;2.1;;;;;;;34.11;25.53711;936.1229;;;;
2019/06/14 13:06:31;;;;;;;10.2;2.3;;;;;;;34.07;25.64258;936.0377;;;;
2019/06/14 13:09:06;;;;;;;8.2;2.3;;;;;;;33.92;26.15234;936.0259;;;;
2019/06/14 13:11:32;;;;;;;8.9;1.8;;;;;;;34.06;27.47168;936.0236;;;;
2019/06/14 13:14:09;;;;;;;12.1;2.4;;;;;;;33.93;29.35352;936.043;;;;
2019/06/14 13:16:49;;;;;;;8;2.1;;;;;;;33.71;27.66797;936.0945;;;;
2019/06/14 13:19:17;;;;;;;7.1;2.1;;;;;;;33.65;28.18066;936.1234;;;;
2019/06/14 13:21:46;;;;;;;11.8;2.2;;;;;;;33.45;28.48145;936.0781;;;;
2019/06/14 13:24:17;;;;;;;9.2;2.4;;;;;;;33.22;28.43164;936.0892;;;;
2019/06/14 13:26:54;;;;;;;7.5;2.1;;;;;;;33.38;29.15039;936.0024;;;;
2019/06/14 13:29:18;;;;;;;9.6;2.3;;;;;;;33.37;28.12695;935.9128;;;;
2019/06/14 13:31:48;;;;;;;9.3;2.1;;;;;;;32.82;29.66602;935.9885;;;;
2019/06/14 13:34:12;;;;;;;10;1.9;;;;;;;32.84;30.82129;936.003;;;;
2019/06/14 13:36:52;;;;;;;9;2.1;;;;;;;32.91;30.57227;936.0481;;;;
2019/06/14 13:39:21;;;;;;;7.5;2.2;;;;;;;32.89;30.34375;935.923;;;;
2019/06/14 13:41:46;;;;;;;13.4;2.3;;;;;;;32.81;32.35547;935.8858;;;;
2019/06/14 13:44:15;;;;;;;9.7;2.5;;;;;;;32.59;33.08301;935.8044;;;;
2019/06/14 13:46:44;;;;;;;9.4;2.2;;;;;;;32.7;33.7041;935.9017;;;;
2019/06/14 13:49:17;;;;;;;11.1;2.3;;;;;;;32.65;33.30371;935.9422;;;;
2019/06/14 13:51:45;;;;;;;8.8;2.4;;;;;;;32.69;34.19531;935.9613;;;;
2019/06/14 13:54:06;;;;;;;10.6;2.3;;;;;;;32.73;32.58984;935.8828;;;;
2019/06/14 13:56:42;;;;;;;9;2.8;;;;;;;32.66;32.90918;935.8733;;;;
2019/06/14 13:59:05;;;;;;;9.6;2.5;;;;;;;32.68;31.79395;935.8215;;;;
2019/06/14 14:01:30;;;;;;;9.5;2.3;;;;;;;32.49;32.5127;935.8968;;;;
2019/06/14 14:04:23;;;;;;;6.8;2.2;;;;;;;32.44;32.84473;935.858;;;;
2019/06/14 14:06:57;;;;;;;8;2.6;;;;;;;32.5;34.70898;935.8636;;;;
2019/06/14 14:09:24;;;;;;;30.7;3.5;;;;;;;32.53;34.42285;935.7181;;;;
2019/06/14 14:12:02;;;;;;;8.3;2.7;;;;;;;32.43;33.80273;935.7155;;;;
2019/06/14 14:14:25;;;;;;;11.3;2.8;;;;;;;32.43;34.22363;935.7853;;;;
2019/06/14 14:16:55;;;;;;;9.4;2.4;;;;;;;32.62;35.57031;935.7101;;;;
2019/06/14 14:19:22;;;;;;;10.8;2.5;;;;;;;32.65;35.5957;935.6294;;;;
2019/06/14 14:21:49;;;;;;;19.6;2.7;;;;;;;32.4;33.90918;935.5878;;;;
2019/06/14 14:24:22;;;;;;;32;3.6;;;;;;;32.13;34.04492;935.6071;;;;
2019/06/14 14:26:49;;;;;;;10.2;2.4;;;;;;;32.12;34.64355;935.5611;;;;
2019/06/14 14:29:12;;;;;;;9.5;2.3;;;;;;;32.11;35.44531;935.6075;;;;
2019/06/14 14:31:43;;;;;;;7.9;2.3;;;;;;;31.93;35.17969;935.5964;;;;
2019/06/14 14:34:06;;;;;;;14;2.8;;;;;;;31.96;35.03809;935.6527;;;;
2019/06/14 14:36:48;;;;;;;12.2;2.7;;;;;;;31.81;36.66797;935.5872;;;;
2019/06/14 14:39:18;;;;;;;6.3;2.4;;;;;;;31.89;35.94434;935.6866;;;;
2019/06/14 14:41:44;;;;;;;12;2.5;;;;;;;31.73;36.2793;935.6238;;;;
2019/06/14 14:44:14;;;;;;;10.2;2.7;;;;;;;31.6;36.71094;935.6564;;;;
2019/06/14 14:46:37;;;;;;;16.4;2.9;;;;;;;31.7;35.49805;935.55;;;;
2019/06/14 14:49:06;;;;;;;7.8;2.5;;;;;;;31.6;37.40625;935.6208;;;;
2019/06/14 14:51:38;;;;;;;10.1;2.6;;;;;;;31.67;36.74121;935.6269;;;;
2019/06/14 14:54:20;;;;;;;8.6;2.6;;;;;;;31.58;37.00879;935.6264;;;;
2019/06/14 14:56:55;;;;;;;13.1;3;;;;;;;31.44;35.47754;935.5411;;;;
2019/06/14 14:59:23;;;;;;;11.4;2.8;;;;;;;31.2;35.51758;935.5103;;;;
2019/06/14 15:07:00;;;;;;;12.4;2.5;;;;;;;30.79;37.48242;935.5673;;;;
2019/06/14 15:09:35;;;;;;;8.2;2.6;;;;;;;30.93;36.50195;935.5939;;;;
2019/06/14 15:12:01;;;;;;;10.1;2.5;;;;;;;30.93;38.41504;935.6164;;;;
2019/06/14 15:14:31;;;;;;;8.5;2.8;;;;;;;31.14;37.16406;935.666;;;;
2019/06/14 15:16:55;;;;;;;5.4;2.4;;;;;;;31.3;36.39941;935.545;;;;
2019/06/14 15:19:28;;;;;;;14.3;2.6;;;;;;;31.35;36.06836;935.5181;;;;
2019/06/14 15:22:02;;;;;;;11.3;2.7;;;;;;;31.08;37.96094;935.448;;;;
2019/06/14 15:24:36;;;;;;;11.8;2.8;;;;;;;31.23;37.64941;935.5231;;;;
2019/06/14 15:27:05;;;;;;;11.7;2.6;;;;;;;31.27;37.94043;935.4808;;;;
2019/06/14 15:29:32;;;;;;;9.2;2.5;;;;;;;31.38;36.96875;935.4691;;;;
2019/06/14 15:32:03;;;;;;;6.2;2.7;;;;;;;31.49;36.2959;935.4614;;;;
2019/06/14 15:34:35;;;;;;;7.8;2.5;;;;;;;31.52;35.49609;935.4255;;;;
2019/06/14 15:37:08;;;;;;;8;2.8;;;;;;;31.62;36.90527;935.3979;;;;
2019/06/14 15:39:42;;;;;;;12.9;2.9;;;;;;;31.6;37.66895;935.3719;;;;
2019/06/14 15:42:13;;;;;;;8.2;2.9;;;;;;;31.43;36.13477;935.4172;;;;
2019/06/14 15:44:38;;;;;;;11.1;3.2;;;;;;;31.24;37.44824;935.327;;;;
2019/06/14 15:47:07;;;;;;;7.6;2.8;;;;;;;31.27;37.30762;935.3741;;;;
2019/06/14 15:49:38;;;;;;;7.7;2.8;;;;;;;31.28;36.6377;935.2673;;;;
2019/06/14 15:52:14;;;;;;;8.5;2.6;;;;;;;31.34;37.76758;935.2166;;;;
2019/06/14 15:54:38;;;;;;;8.3;2.6;;;;;;;31.34;37.34863;935.2561;;;;
2019/06/14 15:57:14;;;;;;;11.9;2.7;;;;;;;31.29;36.78223;935.2265;;;;
2019/06/14 15:59:41;;;;;;;24.1;3.4;;;;;;;31.33;36.78516;935.2721;;;;
2019/06/14 16:02:11;;;;;;;11.1;2.9;;;;;;;30.98;37.67773;935.2776;;;;
2019/06/14 16:04:41;;;;;;;10.2;3;;;;;;;31.18;37.26367;935.3287;;;;
2019/06/14 16:07:14;;;;;;;12;3;;;;;;;31.27;36.79199;935.2781;;;;
2019/06/14 16:09:44;;;;;;;11.2;2.9;;;;;;;31.29;37.27246;935.2831;;;;
2019/06/14 16:12:35;;;;;;;8.2;2.7;;;;;;;31.34;36.85742;935.2614;;;;
2019/06/14 16:15:05;;;;;;;12.1;3.4;;;;;;;31.4;37.2207;935.2239;;;;
2019/06/14 16:17:34;;;;;;;6.5;3;;;;;;;31.35;37.64844;935.1889;;;;
2019/06/14 16:20:05;;;;;;;7.6;2.8;;;;;;;31.42;38.2168;935.1406;;;;
2019/06/14 16:22:38;;;;;;;8.7;3;;;;;;;31.39;37.99902;935.0975;;;;
2019/06/14 16:25:09;;;;;;;9.2;3;;;;;;;31.4;37.75977;935.079;;;;
2019/06/14 16:27:39;;;;;;;10.8;3.1;;;;;;;31.33;37.27539;935.0786;;;;
2019/06/14 16:30:10;;;;;;;11.4;3.5;;;;;;;31.26;38.28809;935.0253;;;;
2019/06/14 16:32:36;;;;;;;11.2;3.3;;;;;;;31.1;38.84766;934.9227;;;;
2019/06/14 16:35:14;;;;;;;8.6;2.8;;;;;;;30.92;38.56934;935.0033;;;;
2019/06/14 16:37:44;;;;;;;9.9;3.4;;;;;;;30.81;38.77441;934.9581;;;;
2019/06/14 16:40:13;;;;;;;9.3;3.3;;;;;;;30.62;38.69824;934.9925;;;;
2019/06/14 16:42:43;;;;;;;20.4;3.5;;;;;;;30.46;38.70898;934.9778;;;;
2019/06/14 16:45:18;;;;;;;8.5;3.4;;;;;;;30.37;39.05957;935.0112;;;;
2019/06/14 16:47:40;;;;;;;8.5;3.3;;;;;;;30.25;39.83691;935.045;;;;
2019/06/14 16:50:24;;;;;;;10.7;3.3;;;;;;;30.2;40.42969;934.932;;;;
2019/06/14 16:52:55;;;;;;;8.7;3.4;;;;;;;30.01;41.39063;934.9525;;;;
2019/06/14 16:55:31;;;;;;;14.2;3.9;;;;;;;29.86;41.86621;934.9313;;;;
2019/06/14 16:57:59;;;;;;;11.6;3.6;;;;;;;29.67;42.13477;934.9031;;;;
2019/06/14 17:00:26;;;;;;;10.7;3.9;;;;;;;29.68;42.42188;934.932;;;;
2019/06/14 17:02:58;;;;;;;13;3.9;;;;;;;29.63;42.8584;934.9661;;;;
2019/06/14 17:05:29;;;;;;;9.7;3.9;;;;;;;29.6;42.9502;934.8889;;;;
2019/06/14 17:08:03;;;;;;;13.1;4;;;;;;;29.42;42.8623;934.9246;;;;
2019/06/14 17:10:26;;;;;;;10.7;4.2;;;;;;;29.29;43.43359;934.9344;;;;
2019/06/14 17:12:55;;;;;;;14;4.1;;;;;;;29.26;43.88281;934.861;;;;
2019/06/14 17:15:23;;;;;;;9.1;3.9;;;;;;;29.23;44.41602;934.6902;;;;
2019/06/14 17:17:55;;;;;;;12.1;4.3;;;;;;;29.31;44.25781;934.7781;;;;
2019/06/14 17:20:27;;;;;;;13.7;4;;;;;;;29.17;44.36328;934.6577;;;;
2019/06/14 17:23:03;;;;;;;13.6;4.3;;;;;;;28.93;45.36328;934.6858;;;;
2019/06/14 17:25:35;;;;;;;15;5;;;;;;;28.76;45.97656;934.6149;;;;
2019/06/14 17:28:07;;;;;;;16.5;4.9;;;;;;;28.71;46.05469;934.7067;;;;
2019/06/14 17:30:39;;;;;;;12.8;4.5;;;;;;;28.77;46.0498;934.7486;;;;
2019/06/14 17:33:10;;;;;;;14.6;4.5;;;;;;;28.85;46.41406;934.7487;;;;
2019/06/14 17:35:38;;;;;;;14.6;4.4;;;;;;;28.64;46.7627;934.8236;;;;
2019/06/14 17:38:08;;;;;;;13.8;4.7;;;;;;;28.53;46.88086;934.8287;;;;
2019/06/14 17:40:41;;;;;;;10.2;4.6;;;;;;;28.49;46.95996;934.758;;;;
2019/06/14 17:43:13;;;;;;;14;4.5;;;;;;;28.48;46.95898;934.6675;;;;
2019/06/14 17:45:39;;;;;;;12.2;4.5;;;;;;;28.36;47.3623;934.6753;;;;
2019/06/14 17:48:33;;;;;;;12.2;4.6;;;;;;;28.27;47.43652;934.6557;;;;
2019/06/14 17:50:51;;;;;;;9.3;4.5;;;;;;;28.28;47.49707;934.7054;;;;
2019/06/14 17:53:19;;;;;;;16.5;4.4;;;;;;;28.34;48.18066;934.7225;;;;
2019/06/14 17:55:47;;;;;;;11.2;4.5;;;;;;;28.06;49.03027;934.6565;;;;
2019/06/14 17:58:15;;;;;;;13.5;4.7;;;;;;;27.8;49.39453;934.5994;;;;
2019/06/14 18:00:44;;;;;;;16.2;5.1;;;;;;;27.97;49.35156;934.5408;;;;
2019/06/14 18:03:21;;;;;;;13.7;4.9;;;;;;;27.94;49.99023;934.6116;;;;
2019/06/14 18:05:43;;;;;;;25.6;5;;;;;;;27.93;50.08398;934.478;;;;
2019/06/14 18:08:21;;;;;;;25.8;5.4;;;;;;;27.97;49.51855;934.4964;;;;
2019/06/14 18:10:56;;;;;;;22;5.1;;;;;;;28.01;49.72461;934.4899;;;;
2019/06/14 18:13:28;;;;;;;18.2;5;;;;;;;27.97;49.98242;934.3484;;;;
2019/06/14 18:16:03;;;;;;;10.7;4.8;;;;;;;27.66;51.09961;934.2392;;;;
2019/06/14 18:18:36;;;;;;;12.3;5;;;;;;;27.45;51.92871;934.2134;;;;
2019/06/14 18:21:00;;;;;;;9;5;;;;;;;27.29;52.39746;934.3018;;;;
2019/06/14 18:23:30;;;;;;;15.5;5.3;;;;;;;27.34;52.33301;934.4498;;;;
2019/06/14 18:25:55;;;;;;;26.9;5.4;;;;;;;27.48;51.76563;934.3745;;;;
2019/06/14 18:28:28;;;;;;;13.9;4.8;;;;;;;27.59;51.25781;934.325;;;;
2019/06/14 18:30:58;;;;;;;16.4;5.4;;;;;;;27.63;51.5;934.3531;;;;
2019/06/14 18:33:31;;;;;;;15.1;4.9;;;;;;;27.64;51.63086;934.2562;;;;
2019/06/14 18:36:07;;;;;;;12.6;5;;;;;;;27.54;52.08301;934.228;;;;
2019/06/14 18:38:37;;;;;;;10.8;4.9;;;;;;;27.54;52.77148;934.3027;;;;
2019/06/14 18:41:01;;;;;;;18;5.3;;;;;;;27.39;53.2041;934.3007;;;;
2019/06/14 18:43:35;;;;;;;13.1;5.3;;;;;;;27.26;52.94043;934.2272;;;;
2019/06/14 18:46:02;;;;;;;18.7;5.6;;;;;;;27.22;53.32617;934.2123;;;;
2019/06/14 18:48:26;;;;;;;11.1;4.9;;;;;;;27.3;52.77734;934.0126;;;;
2019/06/14 18:51:05;;;;;;;16.5;5.5;;;;;;;27.27;52.95215;934.0217;;;;
2019/06/14 18:53:28;;;;;;;13.6;5.1;;;;;;;27.34;53.28027;934.1149;;;;
2019/06/14 18:55:50;;;;;;;15.7;5.4;;;;;;;27.17;53.40234;934.1128;;;;
2019/06/14 18:58:20;;;;;;;17.7;6.1;;;;;;;27.05;53.82715;934.119;;;;
2019/06/14 19:00:57;;;;;;;11.6;5.1;;;;;;;27.12;53.38379;934.0812;;;;
2019/06/14 19:03:25;;;;;;;10.1;4.9;;;;;;;26.89;53.04883;934.1244;;;;
2019/06/14 19:05:55;;;;;;;12.5;5;;;;;;;26.65;53.3291;934.0812;;;;
2019/06/14 19:08:26;;;;;;;11.2;4.8;;;;;;;26.46;53.81641;934.1335;;;;
2019/06/14 19:10:57;;;;;;;11.2;4.8;;;;;;;26.5;53.58398;934.084;;;;
2019/06/14 19:13:35;;;;;;;10.1;5.1;;;;;;;26.65;52.96387;934.0799;;;;
2019/06/14 19:16:06;;;;;;;12.9;5.1;;;;;;;26.63;53.23242;934.0053;;;;
2019/06/14 19:18:37;;;;;;;7.9;4.7;;;;;;;26.7;53.82129;934.037;;;;
2019/06/14 19:21:07;;;;;;;11.5;5.3;;;;;;;26.68;53.58105;933.9977;;;;
2019/06/14 19:23:40;;;;;;;19.3;5.5;;;;;;;26.57;53.72266;934.0675;;;;
2019/06/14 19:26:09;;;;;;;13.2;5.5;;;;;;;26.47;53.91113;934.0891;;;;
2019/06/14 19:28:45;;;;;;;13.4;5.6;;;;;;;26.21;55.05176;934.1311;;;;
2019/06/14 19:31:11;;;;;;;11.3;5.5;;;;;;;26.26;54.79688;934.2453;;;;
2019/06/14 19:33:37;;;;;;;11;5.6;;;;;;;26.14;55.33887;934.3122;;;;
2019/06/14 19:36:10;;;;;;;11.7;5.1;;;;;;;25.97;55.89648;934.3484;;;;
2019/06/14 19:38:48;;;;;;;13.2;5.9;;;;;;;26;56.14941;934.4166;;;;
2019/06/14 19:41:22;;;;;;;9.1;5.7;;;;;;;26.03;56.35254;934.3998;;;;
2019/06/14 19:43:53;;;;;;;13.5;5.9;;;;;;;25.89;56.1123;934.4353;;;;
2019/06/14 19:46:23;;;;;;;12.7;6.3;;;;;;;25.73;56.66992;934.5094;;;;
2019/06/14 19:48:57;;;;;;;11.3;6;;;;;;;25.68;56.60547;934.4606;;;;
2019/06/14 19:51:23;;;;;;;11.1;5.9;;;;;;;25.65;56.8252;934.4613;;;;
2019/06/14 19:53:50;;;;;;;13.8;6.2;;;;;;;25.5;57.68164;934.4844;;;;
2019/06/14 19:56:16;;;;;;;14.3;7.5;;;;;;;25.26;57.22461;934.5234;;;;
2019/06/14 19:58:41;;;;;;;12.7;6.5;;;;;;;25.23;58.1543;934.5714;;;;
2019/06/14 20:01:16;;;;;;;14.7;7;;;;;;;25.05;58.48535;934.5208;;;;
2019/06/14 20:03:45;;;;;;;16.2;7.5;;;;;;;25.11;58.83301;934.5775;;;;
2019/06/14 20:06:11;;;;;;;14.2;6.4;;;;;;;25.32;57.83496;934.6049;;;;
2019/06/14 20:08:42;;;;;;;13.3;5.9;;;;;;;25.08;58.66602;934.7206;;;;
2019/06/14 20:11:14;;;;;;;10.6;5.6;;;;;;;25.12;58.64746;934.6845;;;;
2019/06/14 20:13:41;;;;;;;12.2;5.7;;;;;;;25.02;57.96094;934.7039;;;;
2019/06/14 20:16:11;;;;;;;9.3;6.1;;;;;;;24.86;58.21191;934.7121;;;;
2019/06/14 20:18:45;;;;;;;13.5;5.6;;;;;;;24.88;58.03711;934.7827;;;;
2019/06/14 20:21:17;;;;;;;10.6;5.8;;;;;;;24.09;60.71387;934.8664;;;;
2019/06/14 20:23:48;;;;;;;13.6;6.1;;;;;;;24.08;61.04395;934.9445;;;;
2019/06/14 20:26:17;;;;;;;15.7;6.2;;;;;;;24.03;61.6123;934.8925;;;;
2019/06/14 20:28:41;;;;;;;13.3;6.4;;;;;;;24.16;61.21875;934.8975;;;;
2019/06/14 20:31:10;;;;;;;13.6;6.2;;;;;;;24.19;60.59766;934.98;;;;
2019/06/14 20:33:39;;;;;;;12.3;6.5;;;;;;;24.19;61.11719;935.01;;;;
2019/06/14 20:36:05;;;;;;;11.3;6.1;;;;;;;24.31;60.6377;935.08;;;;
2019/06/14 20:38:41;;;;;;;10.5;6.3;;;;;;;24.32;60.67383;935.1649;;;;
2019/06/14 20:41:05;;;;;;;10.5;6.4;;;;;;;24.3;60.54297;935.1672;;;;
2019/06/14 20:43:49;;;;;;;12.7;7;;;;;;;24.27;59.70313;935.0714;;;;
2019/06/14 20:46:20;;;;;;;12.5;6.9;;;;;;;24.24;59.79297;935.0903;;;;
2019/06/14 20:48:46;;;;;;;14;6.8;;;;;;;24.33;60.2041;935.1376;;;;
2019/06/14 20:51:13;;;;;;;12.5;6.2;;;;;;;23.37;63.50879;935.2518;;;;
2019/06/14 20:53:41;;;;;;;13.6;6.3;;;;;;;23.51;63.05762;935.0961;;;;
2019/06/14 20:56:11;;;;;;;13.5;6;;;;;;;23.71;62.23926;935.1016;;;;
2019/06/14 21:01:40;;;;;;;13.5;7.7;;;;;;;23.47;62.82813;935.1941;;;;
2019/06/14 21:03:56;;;;;;;12.4;7.9;;;;;;;23.45;62.9209;935.1744;;;;
2019/06/14 21:06:24;;;;;;;13.8;7.8;;;;;;;23.44;63.07227;935.2327;;;;
2019/06/14 21:08:50;;;;;;;12.9;7.7;;;;;;;23.68;62.62305;935.2963;;;;
2019/06/14 21:11:23;;;;;;;14.5;7.3;;;;;;;23.44;63.84863;935.1326;;;;
2019/06/14 21:14:16;;;;;;;13.9;7;;;;;;;23.35;63.68262;935.0981;;;;
2019/06/14 21:16:51;;;;;;;9.9;6.5;;;;;;;23.38;63.22656;935.0815;;;;
2019/06/14 21:19:19;;;;;;;15.4;7.3;;;;;;;23.36;63.19043;935.0319;;;;
2019/06/14 21:21:52;;;;;;;14;7.1;;;;;;;23.03;64.74023;935.1083;;;;
2019/06/14 21:24:20;;;;;;;12.9;7;;;;;;;22.96;64.96484;935.1013;;;;
2019/06/14 21:26:52;;;;;;;13.2;6.9;;;;;;;22.9;65.34277;935.0145;;;;
2019/06/14 21:29:21;;;;;;;14.2;7.5;;;;;;;23.17;64.44336;935.0084;;;;
2019/06/14 21:31:46;;;;;;;13.5;6.8;;;;;;;23.3;63.56934;935.084;;;;
2019/06/14 21:34:12;;;;;;;13.3;6.9;;;;;;;23.34;63.3623;935.0184;;;;
2019/06/14 21:36:40;;;;;;;14.6;6.3;;;;;;;23.49;62.82031;934.9604;;;;
2019/06/14 21:39:06;;;;;;;11.1;6.2;;;;;;;23.8;61.57031;934.9002;;;;
2019/06/14 21:41:36;;;;;;;10.1;6.4;;;;;;;23.66;61.72559;934.8444;;;;
2019/06/14 21:44:01;;;;;;;15.7;7.3;;;;;;;23.52;61.00098;934.7789;;;;